Latest Weather Observations for Cape Bruny AWS

IDT60901

Issued at 11:01 pm EST Friday 17 August 2018 (issued every 10 minutes, with the page automatically refreshed every 10 minutes)

About weather observations | Map of Hobart area stations | Latest observations for Hobart area | Other Formats
Station Details ID: 094198 Name: CAPE BRUNY (CAPE BRUNY) Lat: -43.49 Lon: 147.14 Height: 59.7 m
Data from the previous 72 hours. | See also: Recent months at Cape Bruny AWS
Date/Time
EST
Temp
°C
App
Temp
°C
Dew
Point
°C
Rel
Hum
%
Delta-T
°C
Wind Press
QNH
hPa
Press
MSL
hPa
Rain since
9am
mm
Dir  Spd
km/h
Gust
km/h
Spd
kts
Gust
kts
17/11:00pm 9.0 4.8 4.0 71 2.2 NNW 15 20 8 11 997.0 997.1 0.2
17/10:30pm 8.9 4.8 4.3 73 2.0 NW 15 20 8 11 997.1 997.2 0.2
17/10:00pm 9.3 4.4 5.3 76 1.8 NW 20 26 11 14 997.7 997.8 0.2
17/09:30pm 9.7 4.1 5.3 74 2.0 NW 24 32 13 17 997.8 997.9 0.2
17/09:00pm 10.4 4.8 5.4 71 2.3 NW 24 33 13 18 998.2 998.3 0.2
17/08:30pm 11.0 6.8 5.5 69 2.5 NNW 17 24 9 13 998.4 998.5 0.2
17/08:00pm 11.3 7.0 5.2 66 2.8 NNW 17 26 9 14 998.2 998.3 0.2
17/07:30pm 11.8 7.1 5.0 63 3.1 NW 19 26 10 14 998.6 998.7 0.2
17/07:00pm 11.8 7.1 5.2 64 3.1 NNW 19 30 10 16 998.8 998.9 0.2
17/06:30pm 11.6 7.7 5.3 65 2.9 NNW 15 26 8 14 998.8 998.9 0.2
17/06:00pm 11.7 7.4 5.3 65 3.0 NNW 17 26 9 14 998.9 999.0 0.2
17/05:30pm 11.5 7.9 5.2 65 2.9 NNW 13 19 7 10 998.9 999.0 0.2
17/05:00pm 11.7 7.4 5.1 64 3.1 NNW 17 26 9 14 999.0 999.1 0.2
17/04:30pm 11.8 7.5 5.2 64 3.0 NNW 17 22 9 12 999.5 999.6 0.2
17/04:00pm 12.1 7.2 5.3 63 3.2 NNW 20 30 11 16 999.6 999.7 0.2
17/03:30pm 12.0 4.8 5.0 62 3.2 NW 32 44 17 24 1000.1 1000.2 0.2
17/03:00pm 12.0 4.2 5.0 62 3.2 NW 35 44 19 24 1000.3 1000.4 0.2
17/02:36pm 12.1 5.2 4.8 61 3.3 NW 30 54 16 29 1000.4 1000.5 0.2
17/02:30pm 12.1 6.0 5.0 62 3.3 NW 26 37 14 20 1000.4 1000.5 0.2
17/02:01pm 13.5 5.5 5.9 60 3.6 NW 37 56 20 30 1000.5 1000.6 0.2
17/02:00pm 13.5 5.6 6.1 61 3.6 NW 37 56 20 30 1000.5 1000.6 0.2
17/01:53pm 13.3 6.9 5.2 58 3.8 NW 28 46 15 25 1000.5 1000.6 0.2
17/01:30pm 11.8 8.4 5.9 67 2.8 NNW 13 20 7 11 1001.1 1001.2 0.2
17/01:00pm 11.9 8.4 5.3 64 3.1 NW 13 28 7 15 1001.5 1001.6 0.2
17/12:30pm 12.4 8.5 5.3 62 3.3 N 15 22 8 12 1002.1 1002.1 0.0
17/12:00pm 11.4 6.7 5.3 66 2.8 N 19 30 10 16 1002.7 1002.7 0.0
17/11:30am 10.6 5.2 4.7 67 2.7 N 22 32 12 17 1003.1 1003.1 0.0
17/11:00am 11.3 6.6 5.2 66 2.8 N 19 28 10 15 1003.5 1003.5 0.0
17/10:30am 9.9 4.5 4.7 70 2.3 N 22 32 12 17 1003.6 1003.6 0.0
17/10:00am 9.1 5.0 4.3 72 2.1 N 15 22 8 12 1004.2 1004.2 0.0
17/09:30am 8.6 4.9 4.4 75 1.9 NNE 13 22 7 12 1004.3 1004.3 0.0
17/09:00am 8.3 3.8 4.3 76 1.8 NNE 17 24 9 13 1004.7 1004.7 1.2
17/08:30am 8.0 3.8 4.0 76 1.7 NNE 15 20 8 11 1005.1 1005.1 1.2
17/08:00am 7.6 3.9 4.2 79 1.5 NNE 13 20 7 11 1005.1 1005.1 1.2
17/07:30am 7.3 3.6 4.3 81 1.3 N 13 24 7 13 1004.8 1004.8 1.2
17/07:00am 7.1 4.1 4.2 82 1.3 NE 9 15 5 8 1004.7 1004.7 1.2
17/06:30am 7.0 3.9 3.8 80 1.4 NE 9 15 5 8 1004.7 1004.7 1.2
17/06:00am 7.3 1.7 3.5 77 1.6 NNW 22 26 12 14 1004.5 1004.5 1.2
17/05:30am 7.1 2.5 3.9 80 1.4 NNW 17 22 9 12 1004.7 1004.7 1.2
17/05:00am 7.0 2.8 3.8 80 1.4 N 15 22 8 12 1004.8 1004.8 1.2
17/04:30am 7.2 3.0 4.0 80 1.4 N 15 20 8 11 1004.9 1004.9 1.2
17/04:00am 7.1 2.2 3.9 80 1.4 N 19 26 10 14 1004.9 1004.9 1.2
17/03:30am 7.1 2.6 4.1 81 1.3 N 17 20 9 11 1005.1 1005.1 1.2
17/03:00am 6.9 2.7 3.9 81 1.3 N 15 20 8 11 1005.3 1005.3 1.2
17/02:30am 7.0 2.5 4.0 81 1.3 NNW 17 20 9 11 1005.4 1005.4 1.2
17/02:00am 6.7 1.5 3.7 81 1.3 N 20 24 11 13 1005.7 1005.8 1.2
17/01:30am 5.9 2.4 3.6 85 1.0 NE 11 13 6 7 1005.5 1005.5 1.2
17/01:00am 5.8 2.6 2.8 81 1.2 NNE 9 13 5 7 1005.6 1005.7 1.2
17/12:30am 7.7 2.7 3.4 74 1.8 WNW 19 32 10 17 1005.5 1005.5 1.2
17/12:00am 6.7 2.0 3.3 79 1.4 NNW 17 22 9 12 1005.6 1005.7 1.2
 
Date/Time
EST
Temp
°C
App
Temp
°C
Dew
Point
°C
Rel
Hum
%
Delta-T
°C
Wind Press
QNH
hPa
Press
MSL
hPa
Rain since
9am
mm
Dir  Spd
km/h
Gust
km/h
Spd
kts
Gust
kts
16/11:30pm 7.2 2.1 3.3 76 1.7 NW 19 28 10 15 1005.7 1005.8 1.2
16/11:00pm 7.4 1.8 3.5 76 1.7 NW 22 28 12 15 1005.8 1005.9 1.2
16/10:30pm 7.6 0.9 3.8 77 1.6 WNW 28 35 15 19 1005.8 1005.9 1.2
16/10:00pm 7.6 2.4 3.5 75 1.8 NW 20 24 11 13 1005.9 1006.0 1.2
16/09:30pm 7.6 2.7 4.0 78 1.6 NW 19 26 10 14 1005.7 1005.8 1.2
16/09:00pm 7.9 2.4 4.1 77 1.7 WNW 22 32 12 17 1005.6 1005.7 1.2
16/08:30pm 7.6 2.5 4.0 78 1.6 WNW 20 26 11 14 1005.3 1005.3 1.2
16/08:00pm 8.4 2.0 3.1 69 2.3 W 26 35 14 19 1004.8 1004.8 1.2
16/07:30pm 8.1 1.0 3.6 73 1.9 W 30 41 16 22 1004.8 1004.8 1.2
16/07:00pm 8.1 2.6 3.8 74 1.9 W 22 33 12 18 1004.6 1004.6 1.2
16/06:30pm 8.5 0.5 3.9 73 2.0 W 35 48 19 26 1004.0 1004.0 1.2
16/06:00pm 8.2 -1.2 4.2 76 1.8 WSW 43 54 23 29 1003.4 1003.4 1.2
16/05:30pm 8.2 -1.0 3.3 71 2.1 WSW 41 54 22 29 1003.3 1003.3 1.2
16/05:00pm 8.2 -1.4 3.3 71 2.1 WSW 43 59 23 32 1003.0 1003.0 1.2
16/04:56pm 8.2 -0.7 2.9 69 2.2 WSW 39 59 21 32 1003.0 1003.0 1.2
16/04:30pm 8.6 -1.0 3.6 71 2.2 WSW 43 57 23 31 1002.9 1002.9 1.2
16/04:00pm 8.8 -1.0 3.2 68 2.4 W 44 65 24 35 1002.4 1002.4 1.2
16/03:30pm 9.1 -1.4 3.7 69 2.4 W 48 69 26 37 1001.9 1001.9 1.2
16/03:10pm 9.0 -0.5 4.0 71 2.2 W 43 61 23 33 1001.7 1001.8 1.2
16/03:00pm 8.8 -1.0 3.6 70 2.3 W 44 59 24 32 1001.6 1001.7 1.2
16/02:42pm 8.3 -2.1 4.1 75 1.8 W 48 67 26 36 1001.5 1001.6 1.2
16/02:30pm 7.6 -3.8 4.7 82 1.3 W 54 69 29 37 1001.6 1001.7 1.2
16/02:20pm 8.2 -2.3 3.7 73 1.9 W 48 67 26 36 1001.5 1001.6 1.2
16/02:00pm 7.9 -3.0 3.6 74 1.9 W 50 63 27 34 1001.3 1001.4 1.2
16/01:46pm 7.8 -4.2 3.8 76 1.7 W 56 74 30 40 1001.4 1001.5 1.2
16/01:30pm 7.9 -4.2 4.1 77 1.7 W 57 72 31 39 1001.0 1001.1 1.2
16/01:06pm 7.8 -4.8 3.5 74 1.8 W 59 82 32 44 1000.7 1000.8 1.2
16/01:00pm 7.9 -4.3 3.6 74 1.9 W 57 74 31 40 1000.8 1000.9 1.2
16/12:32pm 7.1 -5.0 4.2 82 1.3 W 57 76 31 41 1000.7 1000.8 1.2
16/12:30pm 7.3 -4.6 4.4 82 1.3 W 56 70 30 38 1000.7 1000.8 1.2
16/12:00pm 6.6 -5.0 4.1 84 1.1 W 54 82 29 44 1000.9 1001.0 1.2
16/11:30am 6.8 -3.6 4.3 84 1.1 W 48 70 26 38 1000.6 1000.7 1.0
16/11:00am 6.1 -5.5 4.1 87 0.9 WSW 54 80 29 43 1000.4 1000.5 0.6
16/10:54am 6.4 -3.2 4.2 86 0.9 WSW 44 63 24 34 1000.8 1000.9 0.4
16/10:47am 6.5 -3.9 4.3 86 0.9 W 48 69 26 37 1000.6 1000.7 0.4
16/10:39am 6.4 -7.7 3.9 84 1.1 W 67 87 36 47 999.9 1000.0 0.4
16/10:35am 6.7 -7.0 3.7 81 1.3 W 65 87 35 47 999.7 999.8 0.2
16/10:32am 7.0 -6.0 3.6 79 1.4 W 61 87 33 47 999.4 999.5 0.2
16/10:30am 7.4 -4.2 3.8 78 1.5 W 54 83 29 45 999.5 999.6 0.2
16/10:29am 7.6 -3.7 3.6 76 1.7 W 52 82 28 44 999.7 999.8 0.2
16/10:10am 8.9 1.3 2.9 66 2.6 W 32 56 17 30 999.4 999.5 0.2
16/10:00am 8.3 0.8 3.2 70 2.2 WNW 32 41 17 22 999.6 999.7 0.2
16/09:39am 7.0 -3.4 4.0 81 1.3 W 48 67 26 36 999.7 999.8 0.2
16/09:34am 6.6 -5.6 3.6 81 1.3 W 57 76 31 41 999.7 999.8 0.2
16/09:30am 6.5 -6.2 3.3 80 1.3 W 59 76 32 41 999.6 999.7 0.2
16/09:20am 6.7 -5.0 3.1 78 1.5 W 54 83 29 45 999.5 999.6 0.2
16/09:18am 6.8 -4.1 3.6 80 1.4 W 50 83 27 45 999.5 999.6 0.2
16/09:16am 7.3 -2.3 3.5 77 1.6 W 43 80 23 43 999.7 999.8 0.0
16/09:13am 8.1 -1.2 2.8 69 2.2 WNW 41 59 22 32 999.5 999.6 0.0
16/09:00am 7.5 -2.0 3.7 77 1.6 W 43 57 23 31 999.1 999.2 7.4
16/08:30am 6.8 -2.8 4.3 84 1.1 W 44 56 24 30 998.8 998.9 7.4
16/08:03am 6.7 -1.9 4.4 85 1.0 W 39 61 21 33 998.6 998.7 7.4
16/08:00am 6.8 -1.1 4.6 86 1.0 W 35 50 19 27 998.6 998.7 7.4
16/07:53am 6.7 -0.2 4.4 85 1.0 WNW 30 46 16 25 998.4 998.5 7.4
16/07:30am 6.8 -4.7 4.3 84 1.1 W 54 69 29 37 997.5 997.6 7.2
16/07:23am 6.7 -3.7 4.2 84 1.1 W 48 69 26 37 997.4 997.5 7.2
16/07:05am 6.7 -0.8 4.2 84 1.1 W 33 57 18 31 998.0 998.1 7.0
16/07:00am 6.8 -0.5 4.5 85 1.0 W 32 39 17 21 997.6 997.7 6.8
16/06:30am 6.5 1.4 4.3 86 0.9 NW 20 28 11 15 997.3 997.4 6.6
16/06:23am 6.5 0.7 4.3 86 0.9 WNW 24 37 13 20 997.0 997.1 6.6
16/06:00am 7.0 -2.4 4.7 85 1.0 W 43 52 23 28 996.5 996.6 6.4
16/05:39am 7.2 -0.6 4.7 84 1.1 WNW 35 61 19 33 996.7 996.8 6.2
16/05:30am 7.4 0.5 4.4 81 1.3 NW 30 41 16 22 996.4 996.5 6.0
16/05:00am 6.7 0.5 4.2 84 1.1 NW 26 33 14 18 996.1 996.2 6.0
16/04:30am 7.3 2.2 4.1 80 1.4 NW 20 30 11 16 995.9 996.0 5.8
16/04:00am 7.2 2.1 4.3 82 1.3 NW 20 32 11 17 995.7 995.8 5.8
16/03:30am 7.2 2.3 4.9 85 1.0 WNW 20 28 11 15 995.7 995.8 5.8
16/03:00am 7.3 0.9 5.3 87 0.9 W 28 41 15 22 995.6 995.7 5.6
16/02:30am 7.9 0.5 5.0 82 1.3 WNW 33 50 18 27 995.4 995.5 5.4
16/02:17am 8.0 -0.6 4.8 80 1.4 W 39 54 21 29 995.2 995.3 5.4
16/02:00am 7.5 0.7 5.3 86 1.0 W 30 35 16 19 994.9 995.0 5.4
16/01:30am 7.6 -0.8 5.7 88 0.9 W 39 48 21 26 994.7 994.8 5.4
16/01:00am 7.8 -0.9 5.8 87 0.9 W 41 54 22 29 994.2 994.3 5.0
16/12:47am 7.6 0.9 5.4 86 1.0 WNW 30 54 16 29 994.3 994.4 5.0
16/12:30am 8.1 -1.1 5.6 84 1.1 W 43 48 23 26 993.9 994.0 4.6
16/12:00am 7.7 -0.2 6.0 89 0.8 W 37 54 20 29 993.3 993.4 4.6
 
Date/Time
EST
Temp
°C
App
Temp
°C
Dew
Point
°C
Rel
Hum
%
Delta-T
°C
Wind Press
QNH
hPa
Press
MSL
hPa
Rain since
9am
mm
Dir  Spd
km/h
Gust
km/h
Spd
kts
Gust
kts
15/11:56pm 7.9 0.9 6.0 88 0.9 W 32 50 17 27 993.3 993.4 4.4
15/11:30pm 7.6 0.9 5.4 86 1.0 W 30 43 16 23 993.2 993.3 4.0
15/11:00pm 7.3 2.6 5.0 85 1.0 NW 19 28 10 15 992.4 992.5 3.6
15/10:30pm 6.6 2.5 4.6 87 0.9 NNW 15 24 8 13 992.3 992.4 3.6
15/10:00pm 7.0 0.5 4.8 86 1.0 NW 28 37 15 20 991.6 991.6 3.2
15/09:30pm 6.8 1.1 4.8 87 0.9 NW 24 35 13 19 991.2 991.2 3.2
15/09:00pm 6.2 1.1 4.2 87 0.9 NNW 20 30 11 16 991.0 991.0 3.0
15/08:30pm 6.6 1.6 4.6 87 0.9 NNW 20 28 11 15 990.8 990.8 3.0
15/08:00pm 7.2 0.2 4.2 81 1.3 NW 30 43 16 23 990.3 990.3 2.6
15/07:41pm 7.5 0.9 4.1 79 1.5 NW 28 46 15 25 990.1 990.1 2.6
15/07:30pm 7.7 1.9 4.3 79 1.5 NW 24 30 13 16 990.1 990.1 2.6
15/07:00pm 9.0 2.2 3.0 66 2.6 WNW 28 41 15 22 989.5 989.5 1.8
15/06:46pm 9.0 2.1 2.6 64 2.7 WNW 28 46 15 25 989.1 989.1 1.8
15/06:30pm 8.7 1.5 3.1 68 2.4 NW 30 39 16 21 989.3 989.3 1.8
15/06:25pm 8.8 0.7 3.4 69 2.3 NW 35 50 19 27 989.3 989.3 1.8
15/06:00pm 9.0 -0.8 3.2 67 2.5 NW 44 61 24 33 988.9 988.9 1.8
15/05:51pm 8.8 0.7 3.4 69 2.3 NW 35 61 19 33 989.0 989.0 1.8
15/05:30pm 8.8 0.8 4.0 72 2.1 NW 35 46 19 25 989.1 989.1 1.8
15/05:00pm 9.1 1.2 4.1 71 2.2 NW 35 50 19 27 988.9 988.9 1.8
15/04:30pm 9.4 -0.1 3.8 68 2.5 NW 43 63 23 34 988.2 988.2 1.8
15/04:16pm 9.8 1.4 3.8 66 2.6 WNW 37 56 20 30 988.1 988.1 1.8
15/04:00pm 9.9 2.3 4.1 67 2.6 WNW 33 44 18 24 987.8 987.8 1.8
15/03:41pm 9.8 2.7 5.4 74 2.0 WNW 32 50 17 27 987.7 987.7 1.8
15/03:30pm 9.5 0.1 5.3 75 1.9 W 44 54 24 29 987.5 987.5 1.8
15/03:07pm 9.8 3.4 5.0 72 2.2 WNW 28 61 15 33 987.6 987.6 1.6
15/03:00pm 10.0 2.6 4.2 67 2.6 WNW 32 44 17 24 987.5 987.5 1.6
15/02:30pm 9.9 0.6 4.9 71 2.3 WNW 43 61 23 33 986.8 986.8 1.6
15/02:00pm 9.9 0.6 4.9 71 2.3 W 43 52 23 28 986.1 986.1 1.6
15/01:30pm 9.8 1.2 4.8 71 2.2 WNW 39 59 21 32 985.2 985.2 1.6
15/01:26pm 9.9 2.7 5.1 72 2.2 WNW 32 56 17 30 985.2 985.2 1.6
15/01:00pm 9.9 4.4 5.9 76 1.9 WNW 24 37 13 20 985.3 985.3 1.6
15/12:30pm 9.4 1.8 5.6 77 1.7 WNW 35 46 19 25 984.9 984.9 1.6
15/12:00pm 7.9 -3.2 4.7 80 1.4 WNW 52 67 28 36 984.6 984.6 1.6
15/11:37am 7.9 -1.2 5.7 86 1.0 WNW 43 67 23 36 984.7 984.7 1.6
15/11:30am 8.2 0.4 5.0 80 1.4 WNW 35 52 19 28 984.4 984.5 1.2
15/11:14am 8.2 1.0 5.0 80 1.4 NW 32 50 17 27 983.8 983.9 1.2
15/11:00am 7.9 0.5 4.8 81 1.4 NW 33 48 18 26 983.9 984.0 1.2
15/10:38am 7.3 -1.7 4.8 84 1.1 WNW 41 59 22 32 983.9 984.0 1.2
15/10:30am 7.6 -2.3 4.7 82 1.3 NW 46 59 25 32 983.8 983.9 1.2
15/10:17am 7.2 -0.2 5.0 86 1.0 NW 33 54 18 29 983.7 983.8 1.2
15/10:00am 7.2 1.1 5.0 86 1.0 NW 26 35 14 19 984.1 984.2 0.8
15/09:30am 7.2 0.8 5.2 87 0.9 NNW 28 35 15 19 983.2 983.3 0.4
15/09:09am 7.6 0.2 4.9 83 1.2 NW 33 52 18 28 983.7 983.8 0.0
15/09:00am 7.7 -0.5 5.0 83 1.2 NW 37 54 20 29 983.4 983.5 8.6
15/08:30am 7.9 -0.7 4.8 81 1.4 NW 39 52 21 28 983.4 983.5 8.2
15/08:00am 8.0 -0.6 4.6 79 1.5 NW 39 57 21 31 982.8 982.9 7.4
15/07:30am 7.6 -1.9 4.7 82 1.3 NW 44 65 24 35 983.6 983.7 7.2
15/07:09am 8.4 -1.2 4.4 76 1.8 NW 44 63 24 34 982.5 982.6 7.0
15/07:00am 8.1 -1.3 4.3 77 1.7 NW 43 57 23 31 982.3 982.4 7.0
15/06:31am 8.5 0.6 4.5 76 1.8 WNW 35 67 19 36 983.6 983.7 6.4
15/06:30am 9.0 1.2 4.8 75 1.9 WNW 35 46 19 25 983.8 983.9 6.4
15/06:00am 9.2 -0.3 3.8 69 2.4 WNW 43 61 23 33 983.3 983.4 6.4
15/05:30am 8.5 0.6 4.3 75 1.8 WNW 35 59 19 32 983.8 983.9 6.2
15/05:26am 8.4 1.5 4.4 76 1.8 WNW 30 52 16 28 984.0 984.1 6.2
15/05:00am 8.8 0.4 5.7 81 1.4 WNW 39 54 21 29 984.2 984.3 6.0
15/04:30am 8.9 -0.6 5.1 77 1.7 WNW 44 63 24 34 983.6 983.7 6.0
15/04:17am 9.4 0.6 5.6 77 1.7 WNW 41 69 22 37 984.8 984.8 5.6
15/04:00am 9.6 3.2 5.4 75 1.9 NW 28 44 15 24 983.6 983.7 5.6
15/03:30am 9.6 0.0 6.1 79 1.6 WNW 46 83 25 45 984.0 984.1 5.6
15/03:20am 9.7 -0.5 7.1 84 1.2 W 50 89 27 48 984.2 984.3 5.6
15/03:17am 9.9 0.7 8.0 88 0.9 W 46 65 25 35 984.7 984.7 5.4
15/03:13am 10.1 1.4 8.5 90 0.8 W 44 59 24 32 984.6 984.6 5.2
15/03:00am 10.5 2.7 8.3 86 1.1 NW 39 57 21 31 983.9 984.0 2.4
15/02:53am 10.8 4.0 7.9 82 1.4 NW 33 52 18 28 983.3 983.4 1.6
15/02:30am 11.4 4.7 7.3 76 2.0 NNW 32 52 17 28 982.7 982.8 0.2
15/02:00am 14.6 3.8 4.3 50 4.8 NW 50 76 27 41 983.3 983.4 0.0
15/01:30am 14.6 4.6 4.3 50 4.8 NW 46 67 25 36 984.3 984.4 0.0
15/01:21am 14.4 6.4 3.8 49 4.8 NW 35 61 19 33 985.0 985.0 0.0
15/01:13am 14.6 3.8 4.3 50 4.8 NW 50 89 27 48 985.2 985.2 0.0
15/01:05am 14.8 5.3 3.9 48 5.0 NW 43 89 23 48 985.5 985.5 0.0
15/01:02am 14.7 6.7 3.8 48 5.0 NW 35 74 19 40 986.0 986.0 0.0
15/01:00am 14.6 6.6 3.7 48 5.0 NW 35 56 19 30 986.1 986.1 0.0
15/12:49am 14.2 8.3 3.9 50 4.7 NW 24 46 13 25 986.7 986.7 0.0
15/12:30am 13.6 8.4 3.7 51 4.5 NNW 20 32 11 17 987.8 987.8 0.0
15/12:00am 14.2 7.9 3.7 49 4.8 NW 26 39 14 21 988.2 988.2 0.0
 
Date/Time
EST
Temp
°C
App
Temp
°C
Dew
Point
°C
Rel
Hum
%
Delta-T
°C
Wind Press
QNH
hPa
Press
MSL
hPa
Rain since
9am
mm
Dir  Spd
km/h
Gust
km/h
Spd
kts
Gust
kts
14/11:46pm 14.1 7.4 3.8 50 4.7 NNW 28 46 15 25 988.2 988.2 0.0
14/11:30pm 14.0 9.1 4.0 51 4.6 NNW 19 39 10 21 988.4 988.4 0.0
14/11:11pm 14.4 7.8 4.1 50 4.7 NW 28 46 15 25 989.3 989.3 0.0

Latest Capital City Observations: Canberra | Sydney | Melbourne | Brisbane | Adelaide | Perth | Hobart | Darwin

Other Formats:

Comma delimited format used in spreadsheet applications
http://www.bom.gov.au/fwo/IDT60901/IDT60901.95967.axf

JavaScript Object Notation format (JSON) in row-major order
http://www.bom.gov.au/fwo/IDT60901/IDT60901.95967.json